ARBÚCIES (La Selva)





Hora UTC 17:00
Temperatura 14.7 ºC
Humitat 69.3 %
Pressió 1018.0 hPa
Pluja 0.0 mm
Velocitat vent 11.0 km/h
Direcció vent NE
Radiació solar 112.0 W/m²

Dades diàries 2024-04-16



Hora UTC (hivern +1h; estiu +2h)
Temperatura (ºC) Humitat (%) Pressió (hPa) Velocitat vent (km/h) Precipitació (mm) Radiació solar (W/m²)
Hora UTC Aire Humitat Pressió Vel. Dir. Vel. Max Dir. Intent. màx 5 min. Rad. Sol.
00:05 10.5 79.7 1023.0 7.6 SSW 10.9 SSW 0.0 0.0
00:10 10.3 79.7 1023.0 7.7 SSW 10.6 SSW 0.0 0.0
00:15 10.1 80.1 1022.0 6.4 SSW 8.5 SSW 0.0 0.0
00:20 9.9 81.0 1022.0 6.4 SSW 8.8 SSW 0.0 0.0
00:25 9.9 81.3 1022.0 4.8 SW 7.4 SW 0.0 0.0
00:30 9.8 81.7 1022.0 8.0 SSW 12.3 SSW 0.0 0.0
00:35 10.0 81.4 1023.0 8.1 SSW 10.9 SSW 0.0 0.0
00:40 10.0 81.2 1022.0 7.0 SSW 10.6 SSW 0.0 0.0
00:45 9.9 81.0 1022.0 7.3 SSW 11.6 SW 0.0 0.0
00:50 9.7 81.1 1022.0 6.3 SSW 8.5 SW 0.0 0.0
00:55 9.6 81.7 1022.0 7.8 SSW 10.9 SSW 0.0 0.0
01:00 9.6 81.8 1023.0 6.4 SSW 12.3 SSW 0.0 0.0
01:05 9.7 81.5 1022.0 6.8 SSW 12.0 SSW 0.0 0.0
01:10 9.7 80.9 1022.0 7.2 SW 12.0 SSW 0.0 0.0
01:15 9.6 80.7 1022.0 5.1 SW 9.2 SSW 0.0 0.0
01:20 9.5 81.2 1022.0 8.6 SSW 12.3 SW 0.0 0.0
01:25 9.5 81.1 1022.0 8.5 SSW 14.8 SSW 0.0 0.0
01:30 9.5 80.9 1022.0 9.1 SSW 12.3 SW 0.0 0.0
01:35 9.6 80.3 1022.0 9.4 SSW 13.1 SSW 0.0 0.0
01:40 9.5 80.2 1022.0 10.7 SSW 13.8 SSW 0.0 0.0
01:45 9.6 79.8 1022.0 8.5 SSW 14.8 SSW 0.0 0.0
01:50 9.5 79.9 1022.0 8.0 SSW 13.4 S 0.0 0.0
01:55 9.3 80.4 1022.0 7.2 SSW 14.1 SSW 0.0 0.0
02:00 9.4 80.7 1022.0 10.8 SSW 14.8 S 0.0 0.0
02:05 9.4 80.4 1022.0 9.1 SSW 13.8 S 0.0 0.0
02:10 9.4 80.0 1021.0 10.7 SSW 15.9 SSW 0.0 0.0
02:15 9.3 79.9 1021.0 8.9 SSW 12.0 SSW 0.0 0.0
02:20 9.1 80.8 1021.0 8.4 SSW 12.0 SSW 0.0 0.0
02:25 9.1 81.3 1022.0 8.1 SSW 11.6 SW 0.0 0.0
02:30 9.1 81.7 1022.0 7.5 SSW 14.1 SSW 0.0 0.0
02:35 9.2 81.3 1021.0 9.1 SSW 15.2 SSW 0.0 0.0
02:40 9.3 81.0 1021.0 8.3 SSW 11.6 SW 0.0 0.0
02:45 9.3 80.8 1021.0 7.9 SSW 11.3 SSW 0.0 0.0
02:50 9.2 80.6 1021.0 6.2 SSW 10.6 SSW 0.0 0.0
02:55 9.1 81.3 1021.0 5.8 SSW 11.3 SSW 0.0 0.0
03:00 9.0 81.7 1022.0 6.0 SSW 10.9 SW 0.0 0.0
03:05 8.9 82.2 1021.0 5.8 SSW 10.9 SSW 0.0 0.0
03:10 8.9 83.1 1021.0 8.0 SSW 12.3 SSW 0.0 0.0
03:15 8.9 82.7 1021.0 5.7 SW 10.2 S 0.0 0.0
03:20 8.8 83.2 1021.0 6.5 SSW 10.9 SSW 0.0 0.0
03:25 8.8 83.6 1021.0 7.9 SSW 12.0 SW 0.0 0.0
03:30 8.8 83.9 1022.0 7.4 SSW 10.9 SW 0.0 0.0
03:35 8.6 84.0 1021.0 6.5 SSW 9.2 SSW 0.0 0.0
03:40 8.4 84.6 1021.0 7.1 SSW 9.5 SSW 0.0 0.0
03:45 8.4 85.7 1021.0 7.8 SSW 12.7 SW 0.0 0.0
03:50 8.6 85.9 1021.0 7.7 SSW 12.0 SSW 0.0 0.0
03:55 8.7 85.8 1021.0 7.4 SSW 10.6 SSW 0.0 0.0
04:00 8.7 85.8 1021.0 6.7 SSW 12.0 SSW 0.0 0.0
04:05 8.7 85.5 1021.0 7.4 SSW 13.1 SW 0.0 0.0
04:10 8.6 85.6 1020.0 5.7 SSW 10.6 SSW 0.0 0.0
04:15 8.7 85.9 1020.0 7.1 SSW 13.1 SSW 0.0 0.0
04:20 8.8 85.2 1020.0 10.2 SSW 16.2 SW 0.0 0.0
04:25 9.0 84.2 1020.0 7.7 SW 13.1 WSW 0.0 0.0
04:30 8.9 83.6 1021.0 6.0 SW 9.9 SSW 0.0 0.0
04:35 8.6 83.9 1021.0 7.3 SW 14.1 SW 0.0 0.0
04:40 8.8 84.8 1021.0 9.8 SW 15.2 SW 0.0 0.0
04:45 8.9 84.3 1021.0 7.5 SW 10.6 SW 0.0 0.0
04:50 8.9 84.7 1020.0 5.6 SW 8.5 SSW 0.0 0.1
04:55 9.1 85.0 1020.0 4.7 SSW 7.1 SSW 0.0 0.6
05:00 9.2 84.6 1021.0 1.6 SW 8.1 SSW 0.0 0.6
05:05 9.4 84.8 1020.0 8.2 SSW 12.0 SSW 0.0 1.3
05:10 9.5 84.1 1020.0 4.5 SW 9.2 SW 0.0 1.8
05:15 9.5 84.4 1021.0 4.4 WSW 7.8 W 0.0 2.6
05:20 9.8 84.1 1021.0 3.4 SW 8.8 SSW 0.0 4.2
05:25 10.0 83.6 1021.0 4.6 SW 7.1 WSW 0.0 5.0
05:30 10.3 82.5 1021.0 7.0 SSW 13.8 SW 0.0 6.8
05:35 10.8 79.5 1020.0 7.6 SW 13.1 SW 0.0 12.2
05:40 11.1 76.6 1020.0 7.2 SW 10.9 SW 0.0 20.5
05:45 11.3 73.9 1020.0 5.4 SW 9.2 SW 0.0 27.2
05:50 11.1 75.0 1020.0 4.7 SSW 7.8 SW 0.0 30.5
05:55 11.3 72.6 1020.0 4.4 SSW 9.2 S 0.0 39.5
06:00 11.4 72.8 1021.0 2.1 ENE 7.1 E 0.0 40.0
06:05 11.1 74.3 1020.0 0.0 S 0.4 S 0.0 38.5
06:10 10.6 76.2 1020.0 0.0 WSW 0.4 WSW 0.0 36.8
06:15 10.5 77.5 1020.0 0.0 WSW 0.4 SW 0.0 39.2
06:20 10.4 78.6 1020.0 0.0 WNW 0.4 WNW 0.0 38.0
06:25 10.3 79.0 1020.0 0.0 SSW 0.4 SW 0.0 48.5
06:30 10.3 79.7 1021.0 0.0 E 0.4 S 0.0 49.6
06:35 10.2 80.3 1021.0 0.0 NW 0.4 N 0.0 55.9
06:40 10.2 81.3 1020.0 0.0 NE 0.4 NNW 0.0 79.0
06:45 10.6 81.1 1020.0 0.0 ENE 0.4 ENE 0.0 105.4
06:50 10.8 80.0 1021.0 0.5 ENE 4.2 NNE 0.0 76.6
06:55 11.0 79.9 1020.0 2.0 NE 4.6 ENE 0.0 84.6
07:00 11.1 79.6 1021.0 0.4 NNW 2.8 NNW 0.0 86.6
07:05 11.2 79.5 1020.0 0.0 N 0.4 N 0.0 94.6
07:10 11.4 79.3 1020.0 0.0 NNW 0.4 NW 0.0 98.6
07:15 11.5 78.8 1020.0 0.3 NE 3.5 ENE 0.0 92.2
07:20 11.6 78.4 1020.0 1.3 ENE 3.9 NE 0.0 90.7
07:25 11.7 78.1 1020.0 0.3 ENE 2.1 E 0.0 95.2
07:30 11.8 78.2 1021.0 2.2 NNE 6.7 N 0.0 91.0
07:35 11.9 77.8 1020.0 2.9 ENE 6.4 ENE 0.0 93.7
07:40 11.9 77.8 1020.0 3.1 NNE 7.8 NNE 0.0 102.1
07:45 12.0 78.0 1020.0 2.3 NE 6.7 NE 0.0 108.4
07:50 12.0 77.9 1020.0 0.3 NNE 4.6 NE 0.0 114.1
07:55 12.1 77.8 1020.0 2.7 NNE 6.7 NNE 0.0 122.3
08:00 12.1 77.8 1021.0 5.6 NE 13.8 ENE 0.0 128.5
08:05 11.9 78.3 1020.0 3.6 NE 8.1 ENE 0.0 131.9
08:10 11.9 78.7 1020.0 4.2 NE 7.1 ENE 0.0 146.7
08:15 12.0 78.4 1020.0 3.8 NE 6.7 ENE 0.0 158.1
08:20 12.1 78.5 1020.0 0.8 NNE 4.9 ENE 0.0 163.5
08:25 12.2 78.0 1020.0 1.4 NE 7.1 NE 0.0 160.4
08:30 12.4 77.7 1021.0 3.8 NE 6.7 ENE 0.0 175.7
08:35 12.4 76.8 1020.0 3.4 NE 6.4 NE 0.0 200.4
08:40 12.5 75.6 1020.0 4.4 ENE 6.7 NE 0.0 228.4
08:45 12.6 74.9 1020.0 3.2 NE 6.0 NE 0.0 226.8
08:50 12.8 73.8 1020.0 1.5 N 6.0 N 0.0 223.5
08:55 13.0 73.2 1020.0 1.1 NE 5.6 NE 0.0 224.1
09:00 13.1 71.9 1021.0 5.0 NE 8.1 NE 0.0 249.2
09:05 13.2 71.8 1020.0 5.1 NE 8.8 ENE 0.0 268.8
09:10 13.3 71.3 1020.0 6.0 NE 9.9 NE 0.0 298.5
09:15 13.6 71.2 1020.0 6.0 ENE 9.5 NE 0.0 347.5
09:20 13.7 70.0 1020.0 5.2 NE 8.8 NE 0.0 378.1
09:25 13.9 68.7 1020.0 3.6 ENE 9.2 NE 0.0 406.0
09:30 13.9 68.4 1021.0 3.5 ENE 6.7 ENE 0.0 582.5
09:35 14.6 66.5 1020.0 4.1 ENE 8.5 E 0.0 662.9
09:40 14.5 66.4 1020.0 5.0 ENE 8.8 ENE 0.0 346.0
09:45 14.5 67.3 1020.0 3.9 E 8.1 ENE 0.0 350.0
09:50 14.6 67.6 1020.0 2.0 NNE 5.3 N 0.0 348.2
09:55 15.1 67.8 1020.0 2.3 NE 6.7 NE 0.0 626.7
10:00 15.8 66.3 1020.0 5.3 N 13.8 NE 0.0 857.0
10:05 16.2 64.0 1020.0 8.7 NE 16.2 ENE 0.0 821.0
10:10 16.4 63.0 1019.0 9.0 NE 18.3 ENE 0.0 798.7
10:15 16.0 63.3 1020.0 8.2 NE 14.5 NE 0.0 475.2
10:20 16.1 63.3 1019.0 8.7 NE 15.2 NE 0.0 826.0
10:25 16.4 62.3 1019.0 9.6 NE 15.9 NNE 0.0 601.1
10:30 16.7 61.9 1020.0 10.3 NNE 20.5 ENE 0.0 891.0
10:35 17.1 60.2 1019.0 6.3 NNE 13.8 NE 0.0 860.0
10:40 17.0 58.0 1019.0 5.6 E 11.6 E 0.0 683.0
10:45 17.1 59.4 1019.0 5.5 NE 14.5 NNW 0.0 938.0
10:50 17.5 57.3 1019.0 9.2 ENE 16.9 ENE 0.0 960.0
10:55 17.4 58.1 1019.0 12.2 ENE 19.8 NE 0.0 842.0
11:00 17.2 58.3 1020.0 8.9 ENE 21.2 NE 0.0 965.0
11:05 17.6 56.7 1019.0 10.5 ENE 22.9 ENE 0.0 898.0
11:10 17.4 57.6 1019.0 7.1 NE 15.5 NE 0.0 959.0
11:15 17.7 55.5 1019.0 11.5 ENE 25.0 ENE 0.0 972.0
11:20 17.6 56.6 1019.0 10.0 ENE 22.6 E 0.0 988.0
11:25 17.7 56.2 1019.0 10.9 NE 19.1 NE 0.0 1014.0
11:30 17.9 56.4 1019.0 10.0 NE 20.8 NE 0.0 1012.0
11:35 18.0 55.6 1019.0 11.5 NE 19.4 NE 0.0 991.0
11:40 17.9 55.5 1019.0 9.9 NE 19.8 ENE 0.0 1018.0
11:45 18.3 55.0 1019.0 9.2 ENE 19.8 NE 0.0 1006.0
11:50 18.4 54.6 1019.0 9.8 NE 18.3 ENE 0.0 819.0
11:55 17.9 54.5 1018.0 12.8 NE 21.5 ENE 0.0 551.8
12:00 17.6 55.6 1019.0 12.9 NE 23.3 NE 0.0 696.5
12:05 17.8 55.6 1018.0 11.4 NE 19.4 NE 0.0 883.0
12:10 18.1 55.6 1018.0 13.9 NE 23.3 NE 0.0 1044.0
12:15 18.2 54.0 1018.0 11.7 NE 21.5 NE 0.0 840.0
12:20 17.8 54.9 1018.0 10.5 ENE 16.2 ENE 0.0 805.0
12:25 17.4 55.4 1018.0 9.0 E 22.2 NE 0.0 416.1
12:30 17.6 56.2 1019.0 5.9 NE 14.5 ENE 0.0 344.5
12:35 17.6 55.4 1018.0 9.9 ENE 19.8 NE 0.0 555.0
12:40 17.7 55.7 1018.0 8.5 NE 15.9 NE 0.0 507.0
12:45 17.5 56.4 1018.0 8.7 ENE 18.0 ENE 0.0 448.8
12:50 17.7 57.1 1018.0 9.0 NE 21.9 NE 0.0 933.0
12:55 18.4 55.4 1018.0 11.7 NE 21.9 NE 0.0 1113.0
13:00 18.2 55.4 1019.0 12.3 NE 21.5 NE 0.0 850.0
13:05 18.6 55.6 1018.0 10.3 NE 22.6 NE 0.0 1079.0
13:10 19.0 54.3 1018.0 11.5 NE 21.5 NE 0.0 1073.0
13:15 18.7 54.4 1018.0 8.6 ENE 19.8 NE 0.0 972.0
13:20 18.6 54.2 1018.0 7.9 ENE 18.3 NE 0.0 496.8
13:25 18.4 55.6 1018.0 8.3 ENE 21.5 NE 0.0 1006.0
13:30 18.3 54.9 1019.0 12.1 ENE 20.8 ENE 0.0 462.6
13:35 17.7 57.2 1018.0 5.2 ENE 12.7 ENE 0.0 630.6
13:40 17.7 57.2 1018.0 7.4 E 15.9 ENE 0.0 253.1
13:45 17.4 58.0 1018.0 6.8 NE 16.9 NE 0.0 351.3
13:50 17.3 58.4 1018.0 7.9 ENE 27.2 NE 0.0 241.4
13:55 16.9 59.7 1018.0 9.9 NE 21.2 ENE 0.0 251.9
14:00 17.0 60.5 1018.0 8.0 NE 19.1 ENE 0.0 565.7
14:05 17.5 58.9 1018.0 10.3 NE 20.8 ENE 0.0 414.3
14:10 17.1 59.1 1018.0 9.1 NE 20.8 NE 0.0 258.2
14:15 16.8 59.4 1018.0 4.9 E 14.5 SSE 0.0 264.3
14:20 16.9 60.2 1017.0 7.3 ENE 20.8 NE 0.0 297.3
14:25 16.7 60.3 1018.0 8.7 ENE 20.5 NE 0.0 312.5
14:30 16.5 61.1 1018.0 10.4 ENE 17.6 ENE 0.0 311.0
14:35 16.3 61.1 1018.0 13.4 ENE 24.0 NE 0.0 299.2
14:40 16.3 61.0 1018.0 8.7 ENE 16.9 NE 0.0 287.8
14:45 16.4 60.1 1017.0 9.8 NE 17.6 ENE 0.0 294.0
14:50 16.3 59.6 1017.0 10.7 NE 21.5 ENE 0.0 230.4
14:55 16.1 59.4 1017.0 11.9 NE 24.0 ENE 0.0 212.1
15:00 16.0 59.3 1018.0 10.5 NE 21.5 ENE 0.0 198.1
15:05 16.0 59.6 1017.0 6.5 NNE 14.1 NNE 0.0 177.3
15:10 15.9 59.2 1018.0 11.2 NE 23.6 NE 0.0 151.6
15:15 15.8 59.6 1017.0 9.3 NNE 21.9 NNE 0.0 156.3
15:20 15.8 59.5 1017.0 8.9 NNE 19.8 NE 0.0 121.3
15:25 15.8 59.2 1017.0 10.8 NE 23.3 NE 0.0 141.3
15:30 15.8 59.2 1018.0 13.1 NE 21.9 ENE 0.0 130.8
15:35 15.8 60.3 1017.0 6.3 NE 14.5 NE 0.0 141.6
15:40 15.7 61.5 1017.0 7.1 NNE 16.9 ENE 0.0 99.4
15:45 15.7 62.1 1018.0 9.4 NE 17.6 NE 0.0 213.1
15:50 15.7 60.3 1017.0 10.7 NE 18.3 NE 0.0 207.6
15:55 16.1 59.5 1017.0 7.1 NE 15.5 NE 0.0 304.8
16:00 16.2 57.8 1018.0 9.1 NE 26.1 NNE 0.0 210.9
16:05 16.1 57.4 1017.0 10.3 NE 20.5 ENE 0.0 410.8
16:10 16.0 57.1 1017.0 7.9 NE 19.8 ENE 0.0 211.1
16:15 15.9 58.4 1017.0 11.2 NE 25.0 ENE 0.0 247.1
16:20 15.7 59.7 1017.0 12.2 NNE 23.6 NE 0.0 316.9
16:25 15.9 60.7 1017.0 9.5 NE 18.3 NE 0.0 201.3
16:30 15.8 61.9 1018.0 8.5 NE 24.3 NE 0.0 195.4
16:35 15.6 63.4 1017.0 13.3 NE 19.1 E 0.0 163.1
16:40 15.3 64.2 1017.0 10.1 ENE 19.1 NE 0.0 165.7
16:45 15.2 65.6 1017.0 10.5 NE 18.0 NE 0.0 124.8
16:50 15.1 66.3 1017.0 10.1 NNE 23.3 NNE 0.0 99.3
16:55 14.9 67.8 1017.0 14.7 NE 23.6 ENE 0.0 114.0
17:00 14.7 69.3 1018.0 11.0 NE 20.1 NE 0.0 112.0
Màxima 19.0 85.9 1023.0 14.7 NE 27.2 NE 0.0 1113.0
Mínima 8.4 54.0 1017.0
Total 0.0